Time;durP1;ratioP1;P1;durP2;ratioP2;P2;SDS_P1;SDS_P2;PMS_P1;PMS_P2;Temp;Humidity;BMP_temperature;BMP_pressure;BME280_temperature;BME280_humidity;BME280_pressure;Samples;Min_cycle;Max_cycle;Signal;HPM_P1;HPM_P2
2022/06/13 00:01:21;;;;;;;8.88;3.97;;;16.70;61.50;;;;;;5091721;28;20021;-67
2022/06/13 00:03:48;;;;;;;11.63;4.35;;;16.60;62.60;;;;;;5092489;28;20101;-67
2022/06/13 00:06:14;;;;;;;10.23;4.00;;;16.50;63.10;;;;;;5092744;28;20089;-67
2022/06/13 00:08:39;;;;;;;10.95;4.32;;;16.30;63.50;;;;;;5095066;28;20021;-67
2022/06/13 00:11:09;;;;;;;11.98;4.30;;;16.20;63.50;;;;;;5096535;28;20070;-67
2022/06/13 00:13:38;;;;;;;8.23;4.05;;;16.20;63.90;;;;;;5096529;28;20044;-67
2022/06/13 00:16:04;;;;;;;12.00;4.45;;;16.10;64.10;;;;;;5096434;28;20029;-67
2022/06/13 00:18:30;;;;;;;8.27;4.28;;;16.20;64.80;;;;;;5096517;28;20028;-67
2022/06/13 00:20:56;;;;;;;11.25;4.93;;;16.20;64.60;;;;;;5096253;28;20032;-67
2022/06/13 00:23:22;;;;;;;10.43;4.65;;;16.10;64.90;;;;;;5095296;28;20021;-67
2022/06/13 00:25:48;;;;;;;8.20;4.25;;;16.20;64.90;;;;;;5096251;28;20048;-67
2022/06/13 00:28:14;;;;;;;8.52;4.10;;;16.30;65.00;;;;;;5095335;28;20025;-67
2022/06/13 00:30:39;;;;;;;8.98;4.22;;;16.30;64.80;;;;;;5096161;28;20028;-67
2022/06/13 00:33:05;;;;;;;9.32;4.03;;;16.30;65.20;;;;;;5096138;28;20028;-67
2022/06/13 00:35:31;;;;;;;10.55;4.82;;;16.20;65.50;;;;;;5096106;28;20039;-67
2022/06/13 00:37:56;;;;;;;9.23;4.20;;;16.10;65.60;;;;;;5095110;28;20028;-67
2022/06/13 00:40:22;;;;;;;8.50;4.32;;;15.90;66.80;;;;;;5096033;28;20476;-67
2022/06/13 00:42:48;;;;;;;7.50;4.47;;;15.80;66.00;;;;;;5095950;28;20047;-67
2022/06/13 00:45:26;;;;;;;9.70;4.22;;;15.80;65.80;;;;;;5095909;28;20040;-67
2022/06/13 00:47:54;;;;;;;11.32;4.50;;;15.90;65.50;;;;;;5095912;28;20025;-67
2022/06/13 00:50:32;;;;;;;10.10;4.47;;;16.00;65.10;;;;;;5095816;28;20041;-67
2022/06/13 00:53:08;;;;;;;8.13;4.25;;;16.00;65.10;;;;;;5095742;28;20031;-67
2022/06/13 00:56:11;;;;;;;10.32;4.53;;;15.90;65.20;;;;;;5095785;28;20031;-67
2022/06/13 00:58:41;;;;;;;13.85;4.95;;;15.90;65.50;;;;;;5093633;28;20036;-67
2022/06/13 01:01:07;;;;;;;10.10;5.00;;;15.90;65.70;;;;;;5095659;28;20017;-67
2022/06/13 01:03:34;;;;;;;10.93;5.47;;;15.90;65.80;;;;;;5095427;28;20047;-67
2022/06/13 01:06:03;;;;;;;11.18;5.10;;;15.90;66.10;;;;;;5095632;28;20056;-66
2022/06/13 01:08:32;;;;;;;8.30;4.13;;;15.80;66.70;;;;;;5095508;28;20027;-67
2022/06/13 01:11:18;;;;;;;7.80;4.47;;;15.70;66.80;;;;;;5095410;28;20027;-67
2022/06/13 01:13:43;;;;;;;9.23;4.68;;;15.70;67.80;;;;;;5095461;28;20032;-67
2022/06/13 01:16:34;;;;;;;10.45;4.93;;;15.80;66.70;;;;;;5095358;28;20028;-67
2022/06/13 01:19:34;;;;;;;9.05;4.78;;;15.80;66.80;;;;;;5095036;28;20043;-67
2022/06/13 01:22:31;;;;;;;15.10;5.50;;;15.80;67.40;;;;;;5071622;28;20037;-66
2022/06/13 01:25:21;;;;;;;14.57;6.50;;;15.70;67.50;;;;;;5095306;28;20021;-67
2022/06/13 01:28:03;;;;;;;10.40;5.45;;;15.70;68.20;;;;;;5095184;28;20052;-67
2022/06/13 01:30:55;;;;;;;9.88;6.07;;;15.60;69.20;;;;;;5095257;28;20108;-67
2022/06/13 01:33:26;;;;;;;14.95;6.50;;;15.50;70.00;;;;;;5091834;28;20044;-67
2022/06/13 01:36:06;;;;;;;10.55;6.18;;;15.50;70.00;;;;;;5094013;28;20024;-67
2022/06/13 01:38:58;;;;;;;12.10;5.90;;;15.60;70.00;;;;;;5094964;28;20426;-67
2022/06/13 01:41:44;;;;;;;12.70;6.68;;;15.70;70.00;;;;;;5095077;28;20116;-67
2022/06/13 01:44:34;;;;;;;14.00;6.22;;;15.80;70.20;;;;;;5094246;28;20395;-67
2022/06/13 01:47:18;;;;;;;14.82;6.63;;;15.90;69.90;;;;;;5094809;28;20030;-67
2022/06/13 01:50:10;;;;;;;12.25;5.90;;;16.00;69.50;;;;;;5094880;28;20027;-67
2022/06/13 01:53:00;;;;;;;14.57;6.20;;;16.00;69.70;;;;;;5094769;28;20088;-67
2022/06/13 01:55:34;;;;;;;11.18;5.88;;;16.00;70.40;;;;;;5063311;28;20044;-67
2022/06/13 01:58:12;;;;;;;12.63;6.70;;;15.90;70.20;;;;;;5094561;28;20025;-67
2022/06/13 02:00:39;;;;;;;11.25;5.80;;;15.90;70.30;;;;;;5093341;28;20397;-67
2022/06/13 02:03:43;;;;;;;12.25;5.82;;;16.00;70.30;;;;;;5094412;28;20126;-67
2022/06/13 02:06:22;;;;;;;11.55;5.97;;;16.00;70.50;;;;;;5094379;28;20037;-66
2022/06/13 02:09:00;;;;;;;11.38;6.35;;;15.90;70.40;;;;;;5094344;28;20016;-67
2022/06/13 02:11:46;;;;;;;12.75;6.18;;;15.90;70.30;;;;;;5094278;28;20031;-67
2022/06/13 02:14:37;;;;;;;14.10;5.68;;;16.00;70.30;;;;;;5094241;28;20103;-67
2022/06/13 02:17:08;;;;;;;10.57;5.40;;;16.00;70.30;;;;;;5094322;28;20078;-67
2022/06/13 02:19:35;;;;;;;15.65;6.25;;;16.10;70.20;;;;;;5092926;28;20032;-67
2022/06/13 02:22:19;;;;;;;11.60;5.80;;;16.10;70.10;;;;;;5094054;28;20025;-67
2022/06/13 02:25:01;;;;;;;14.20;6.10;;;16.20;70.10;;;;;;5094033;28;20198;-67
2022/06/13 02:27:33;;;;;;;13.90;6.10;;;16.20;70.00;;;;;;5093895;28;20024;-67
2022/06/13 02:30:06;;;;;;;12.80;6.15;;;16.20;70.10;;;;;;5093485;28;20016;-67
2022/06/13 02:32:48;;;;;;;13.20;6.22;;;16.20;69.80;;;;;;5093626;28;20174;-67
2022/06/13 02:35:21;;;;;;;14.80;6.20;;;16.20;69.80;;;;;;5094006;28;20044;-67
2022/06/13 02:37:53;;;;;;;10.38;5.53;;;16.20;69.80;;;;;;5093783;28;20074;-67
2022/06/13 02:40:32;;;;;;;12.43;5.63;;;16.10;70.10;;;;;;5093661;28;20020;-67
2022/06/13 02:43:12;;;;;;;13.57;5.78;;;16.10;70.50;;;;;;5093694;28;20084;-67
2022/06/13 02:45:52;;;;;;;11.63;6.05;;;16.00;71.00;;;;;;5093674;28;20402;-67
2022/06/13 02:48:24;;;;;;;12.15;6.28;;;15.90;71.40;;;;;;5093586;28;20024;-67
2022/06/13 02:51:08;;;;;;;11.07;6.30;;;15.90;71.90;;;;;;5093528;28;20032;-67
2022/06/13 02:53:47;;;;;;;12.80;5.68;;;15.90;72.00;;;;;;5093531;28;20088;-67
2022/06/13 02:57:23;;;;;;;10.23;5.65;;;15.90;72.00;;;;;;5093666;28;20032;-67
2022/06/13 02:59:58;;;;;;;9.65;5.53;;;16.00;71.50;;;;;;5093257;28;20084;-67
2022/06/13 03:03:14;;;;;;;12.55;5.60;;;16.00;71.00;;;;;;5064801;28;20032;-67
2022/06/13 03:06:04;;;;;;;10.50;5.45;;;16.00;70.90;;;;;;5059525;28;20048;-67
2022/06/13 03:08:42;;;;;;;11.55;5.88;;;15.90;71.30;;;;;;5093485;28;20052;-67
2022/06/13 03:11:29;;;;;;;10.45;5.80;;;15.90;71.50;;;;;;5093408;28;20029;-67
2022/06/13 03:14:11;;;;;;;11.43;5.90;;;15.80;71.50;;;;;;5093447;28;20052;-67
2022/06/13 03:17:03;;;;;;;12.73;5.38;;;15.80;71.60;;;;;;5092268;28;20023;-67
2022/06/13 03:19:49;;;;;;;11.70;5.63;;;15.80;71.80;;;;;;5090232;28;20063;-67
2022/06/13 03:22:31;;;;;;;12.00;5.25;;;15.80;71.70;;;;;;5093349;28;20046;-67
2022/06/13 03:25:10;;;;;;;12.00;5.68;;;15.80;71.70;;;;;;5093221;28;20021;-67
2022/06/13 03:27:44;;;;;;;13.32;5.50;;;15.80;71.80;;;;;;5093412;28;20062;-66
2022/06/13 03:30:17;;;;;;;13.30;5.90;;;15.70;71.60;;;;;;5093305;28;20023;-67
2022/06/13 03:35:42;;;;;;;12.02;5.63;;;15.70;72.00;;;;;;5093323;28;20043;-67
2022/06/13 03:38:12;;;;;;;11.40;6.25;;;15.60;72.00;;;;;;5093083;28;20411;-67
2022/06/13 03:40:41;;;;;;;18.27;6.85;;;15.60;72.20;;;;;;5093117;28;20048;-67
2022/06/13 03:43:17;;;;;;;13.57;5.70;;;15.60;72.30;;;;;;5096273;28;20012;-67
2022/06/13 03:45:53;;;;;;;13.68;6.45;;;15.70;72.40;;;;;;5097106;28;20027;-67
2022/06/13 03:48:34;;;;;;;13.88;6.05;;;15.70;72.50;;;;;;5097073;28;20016;-67
2022/06/13 03:51:02;;;;;;;13.25;6.28;;;15.70;72.80;;;;;;5097027;28;20033;-67
2022/06/13 03:53:47;;;;;;;14.25;6.25;;;15.70;72.70;;;;;;5095917;28;20036;-67
2022/06/13 03:56:23;;;;;;;14.70;6.90;;;15.80;73.70;;;;;;5097047;28;20020;-67
2022/06/13 03:59:15;;;;;;;16.23;6.60;;;15.80;72.90;;;;;;5096761;28;20029;-67
2022/06/13 04:01:46;;;;;;;17.30;7.13;;;15.70;72.80;;;;;;5096863;28;20025;-67
2022/06/13 04:04:20;;;;;;;15.18;6.75;;;15.80;73.10;;;;;;5096611;28;20051;-67
2022/06/13 04:06:46;;;;;;;14.52;6.47;;;15.80;73.20;;;;;;5096660;28;20024;-67
2022/06/13 04:09:25;;;;;;;14.10;6.53;;;15.80;73.00;;;;;;5096606;28;20016;-67
2022/06/13 04:11:57;;;;;;;14.07;6.72;;;15.90;73.00;;;;;;5096607;28;20104;-67
2022/06/13 04:14:25;;;;;;;18.13;7.18;;;15.90;73.00;;;;;;5096520;28;20028;-67
2022/06/13 04:16:57;;;;;;;12.73;6.63;;;15.90;73.00;;;;;;5096446;28;20036;-67
2022/06/13 04:19:41;;;;;;;13.65;6.70;;;15.90;73.30;;;;;;5096426;28;20024;-67
2022/06/13 04:22:28;;;;;;;17.23;7.15;;;15.90;73.20;;;;;;5096414;28;20024;-67
2022/06/13 04:25:03;;;;;;;13.73;7.32;;;15.90;73.70;;;;;;5096488;28;20047;-67
2022/06/13 04:27:45;;;;;;;15.05;7.60;;;15.90;73.50;;;;;;5096266;28;20020;-67
2022/06/13 04:30:15;;;;;;;19.38;7.32;;;15.90;73.80;;;;;;5096314;28;20024;-67
2022/06/13 04:32:59;;;;;;;14.70;7.05;;;15.90;73.90;;;;;;5096205;28;20084;-67
2022/06/13 04:35:25;;;;;;;18.08;7.55;;;15.90;74.20;;;;;;5096179;28;20025;-67
2022/06/13 04:37:52;;;;;;;17.15;7.03;;;15.90;74.00;;;;;;5096108;28;20063;-67
2022/06/13 04:40:24;;;;;;;14.75;7.53;;;15.90;74.20;;;;;;5094987;28;20020;-67
2022/06/13 04:42:51;;;;;;;17.52;7.80;;;15.90;74.50;;;;;;5096034;28;20478;-67
2022/06/13 04:45:24;;;;;;;14.88;7.00;;;15.90;74.50;;;;;;5095927;28;20024;-67
2022/06/13 04:47:52;;;;;;;15.32;6.90;;;16.00;74.40;;;;;;5095919;28;20372;-67
2022/06/13 04:50:29;;;;;;;20.70;7.72;;;16.10;74.10;;;;;;5095875;28;20021;-67
2022/06/13 04:52:57;;;;;;;18.02;7.35;;;16.10;74.30;;;;;;5095570;28;20124;-67
2022/06/13 04:55:42;;;;;;;17.05;7.70;;;16.10;74.20;;;;;;5095433;28;20047;-67
2022/06/13 04:58:22;;;;;;;15.43;7.63;;;16.10;74.60;;;;;;5095731;28;20012;-67
2022/06/13 05:00:52;;;;;;;19.13;7.28;;;16.10;74.80;;;;;;5095673;28;20039;-67
2022/06/13 05:03:25;;;;;;;15.63;7.82;;;16.10;75.00;;;;;;5095615;28;20013;-67
2022/06/13 05:05:54;;;;;;;15.63;7.40;;;16.10;75.30;;;;;;5095387;28;20057;-67
2022/06/13 05:08:27;;;;;;;15.85;7.05;;;16.10;75.20;;;;;;5095518;28;20024;-67
2022/06/13 05:11:00;;;;;;;15.95;7.78;;;16.10;75.60;;;;;;5095513;28;20017;-67
2022/06/13 05:13:26;;;;;;;16.77;7.13;;;16.10;75.70;;;;;;5094543;28;20036;-67
2022/06/13 05:16:12;;;;;;;16.63;7.40;;;16.20;75.30;;;;;;5095416;28;20025;-67
2022/06/13 05:18:44;;;;;;;19.48;7.75;;;16.30;75.60;;;;;;5095382;28;20028;-67
2022/06/13 05:21:25;;;;;;;20.53;8.57;;;16.30;75.30;;;;;;5095365;28;20032;-67
2022/06/13 05:24:10;;;;;;;15.18;7.82;;;16.30;75.50;;;;;;5095386;28;20029;-67
2022/06/13 05:26:35;;;;;;;17.73;8.10;;;16.40;75.20;;;;;;5095209;28;20012;-67
2022/06/13 05:29:01;;;;;;;18.52;7.43;;;16.50;75.00;;;;;;5095061;28;20031;-67
2022/06/13 05:31:28;;;;;;;16.10;7.57;;;16.50;75.00;;;;;;5095016;28;20025;-67
2022/06/13 05:33:55;;;;;;;17.58;7.80;;;16.40;75.50;;;;;;5095031;28;20032;-68
2022/06/13 05:36:23;;;;;;;20.65;7.82;;;16.40;75.60;;;;;;5095102;28;20029;-66
2022/06/13 05:38:51;;;;;;;18.55;8.13;;;16.50;75.50;;;;;;5094895;28;20028;-66
2022/06/13 05:41:17;;;;;;;18.13;7.97;;;16.60;76.00;;;;;;5094867;28;20028;-66
2022/06/13 05:43:43;;;;;;;17.42;7.60;;;16.60;75.80;;;;;;5094825;28;20387;-66
2022/06/13 05:46:17;;;;;;;18.38;7.70;;;16.70;76.00;;;;;;5094748;28;20052;-66
2022/06/13 05:48:42;;;;;;;20.48;8.48;;;16.70;76.60;;;;;;5094753;28;20012;-66
2022/06/13 05:51:08;;;;;;;19.50;8.93;;;16.70;76.70;;;;;;5094674;28;20035;-66
2022/06/13 05:53:33;;;;;;;17.38;8.30;;;16.70;76.80;;;;;;5094617;28;20033;-67
2022/06/13 05:56:01;;;;;;;18.30;8.60;;;16.80;76.60;;;;;;5094590;28;20079;-67
2022/06/13 05:58:27;;;;;;;18.40;8.27;;;16.90;76.60;;;;;;5094545;28;20117;-67
2022/06/13 06:00:57;;;;;;;20.05;8.38;;;17.00;76.60;;;;;;5094454;28;20025;-67
2022/06/13 06:03:23;;;;;;;18.00;8.02;;;17.00;76.30;;;;;;5094430;28;20013;-67
2022/06/13 06:05:49;;;;;;;16.20;7.63;;;17.00;75.80;;;;;;5093173;28;20040;-67
2022/06/13 06:08:20;;;;;;;15.07;8.25;;;17.10;75.40;;;;;;5093377;28;20039;-67
2022/06/13 06:10:47;;;;;;;15.65;7.32;;;17.20;75.30;;;;;;5094277;28;20104;-67
2022/06/13 06:13:13;;;;;;;17.38;7.38;;;17.30;75.00;;;;;;5094367;28;20063;-67
2022/06/13 06:15:40;;;;;;;14.38;7.25;;;17.30;74.90;;;;;;5094197;28;20029;-67
2022/06/13 06:18:06;;;;;;;17.75;7.72;;;17.30;74.30;;;;;;5093075;28;20024;-67
2022/06/13 06:20:31;;;;;;;17.88;7.95;;;17.30;73.90;;;;;;5092886;28;20040;-67
2022/06/13 06:22:57;;;;;;;14.02;7.18;;;17.40;73.70;;;;;;5094148;28;20024;-67
2022/06/13 06:25:22;;;;;;;19.65;8.00;;;17.40;73.50;;;;;;5092959;28;20052;-67
2022/06/13 06:27:48;;;;;;;15.85;6.90;;;17.50;73.80;;;;;;5093883;28;20025;-67
2022/06/13 06:30:16;;;;;;;19.40;7.32;;;17.50;73.50;;;;;;5093914;28;20050;-67
2022/06/13 06:32:42;;;;;;;17.60;7.18;;;17.50;73.60;;;;;;5093959;28;20020;-67
2022/06/13 06:35:08;;;;;;;16.58;6.75;;;17.60;73.20;;;;;;5093833;28;20115;-67
2022/06/13 06:37:33;;;;;;;15.80;5.55;;;17.60;72.60;;;;;;5093804;28;20044;-67
2022/06/13 06:39:59;;;;;;;18.13;6.55;;;17.60;72.20;;;;;;5093683;28;20025;-67
2022/06/13 06:42:25;;;;;;;16.67;5.97;;;17.60;72.20;;;;;;5093725;28;20094;-67
2022/06/13 06:44:50;;;;;;;15.65;6.18;;;17.70;72.20;;;;;;5093656;28;20036;-67
2022/06/13 06:47:16;;;;;;;11.38;4.85;;;17.80;71.80;;;;;;5093570;28;20033;-67
2022/06/13 06:49:41;;;;;;;13.80;5.07;;;17.80;71.00;;;;;;5093518;28;20020;-67
2022/06/13 06:52:07;;;;;;;17.80;4.90;;;17.80;70.50;;;;;;5093567;28;20391;-67
2022/06/13 07:00:05;;;;;;;16.08;4.57;;;17.80;69.10;;;;;;5093586;28;20048;-67
2022/06/13 07:02:31;;;;;;;13.10;3.92;;;17.80;68.40;;;;;;5093395;28;20085;-67
2022/06/13 07:05:03;;;;;;;12.23;3.53;;;17.70;67.60;;;;;;5093087;28;20049;-67
2022/06/13 07:07:29;;;;;;;13.68;3.97;;;17.80;67.00;;;;;;5093438;28;20024;-67
2022/06/13 07:09:54;;;;;;;11.30;4.45;;;17.70;66.30;;;;;;5093344;28;20082;-67
2022/06/13 07:12:20;;;;;;;9.75;3.65;;;17.80;66.10;;;;;;5092330;28;20067;-67
2022/06/13 07:14:46;;;;;;;13.02;3.53;;;17.80;66.40;;;;;;5093304;28;20043;-67
2022/06/13 07:17:13;;;;;;;8.38;3.22;;;17.90;66.50;;;;;;5093024;28;20029;-67
2022/06/13 07:19:39;;;;;;;9.07;3.25;;;17.90;65.10;;;;;;5093177;28;20610;-67
2022/06/13 07:22:07;;;;;;;10.75;3.90;;;17.90;65.00;;;;;;5093208;28;20357;-67
2022/06/13 07:24:33;;;;;;;9.02;3.03;;;18.00;65.10;;;;;;5093164;28;20518;-67
2022/06/13 07:27:00;;;;;;;10.07;3.38;;;18.10;65.10;;;;;;5093115;28;20145;-67
2022/06/13 07:29:26;;;;;;;9.93;3.65;;;18.20;64.50;;;;;;5093063;28;20385;-67
2022/06/13 07:31:58;;;;;;;10.18;3.05;;;18.20;63.90;;;;;;5093136;28;20088;-67
2022/06/13 07:34:27;;;;;;;8.57;3.03;;;18.30;63.00;;;;;;5093179;28;20016;-67
2022/06/13 07:36:56;;;;;;;8.23;2.40;;;18.30;62.90;;;;;;5093075;28;20115;-67
2022/06/13 07:39:22;;;;;;;7.85;2.13;;;18.30;62.50;;;;;;5092978;28;20100;-67
2022/06/13 07:41:49;;;;;;;7.13;1.73;;;18.20;61.20;;;;;;5092993;28;20058;-67
2022/06/13 07:44:24;;;;;;;5.60;1.80;;;18.30;60.60;;;;;;5093158;28;20047;-67
2022/06/13 07:46:51;;;;;;;4.85;1.73;;;18.30;59.30;;;;;;5093028;28;20016;-67
2022/06/13 07:49:17;;;;;;;5.78;2.20;;;18.30;59.40;;;;;;5092965;28;20059;-67
2022/06/13 07:51:43;;;;;;;6.50;1.90;;;18.40;59.80;;;;;;5092892;28;20043;-67
2022/06/13 07:54:09;;;;;;;5.18;1.67;;;18.50;58.70;;;;;;5092900;28;20476;-67
2022/06/13 07:56:36;;;;;;;4.90;1.80;;;18.50;58.70;;;;;;5092905;28;20028;-67
2022/06/13 07:59:03;;;;;;;4.97;1.60;;;18.60;58.70;;;;;;5092766;28;20016;-67
2022/06/13 08:01:29;;;;;;;4.65;1.80;;;18.70;58.10;;;;;;5092777;28;20017;-67
2022/06/13 08:03:55;;;;;;;4.65;1.88;;;18.70;57.80;;;;;;5092796;28;20025;-67
2022/06/13 08:06:24;;;;;;;7.40;1.90;;;18.80;57.40;;;;;;5092606;28;20098;-67
2022/06/13 08:08:51;;;;;;;8.88;1.83;;;18.80;57.90;;;;;;5092827;28;20017;-67
2022/06/13 08:11:39;;;;;;;5.47;2.15;;;19.00;58.20;;;;;;5092726;28;20035;-67
2022/06/13 08:14:06;;;;;;;5.72;1.90;;;19.10;57.60;;;;;;5092607;28;20021;-67
2022/06/13 08:16:34;;;;;;;4.43;2.00;;;19.20;58.00;;;;;;5092563;28;20017;-67
2022/06/13 08:19:03;;;;;;;5.40;1.80;;;19.30;57.60;;;;;;5092625;28;20020;-67
2022/06/13 08:21:30;;;;;;;4.18;1.77;;;19.30;56.90;;;;;;5092641;28;20020;-67
2022/06/13 08:23:56;;;;;;;6.55;1.73;;;19.40;56.10;;;;;;5092655;28;20498;-67
2022/06/13 08:26:22;;;;;;;5.00;1.85;;;19.40;56.30;;;;;;5092615;28;20025;-67
2022/06/13 08:28:48;;;;;;;5.22;1.80;;;19.40;56.00;;;;;;5093476;28;20040;-67
2022/06/13 08:31:17;;;;;;;5.35;1.88;;;19.40;55.80;;;;;;5096253;28;20074;-67
2022/06/13 08:33:43;;;;;;;8.52;1.73;;;19.30;56.10;;;;;;5096215;28;20052;-67
2022/06/13 08:36:09;;;;;;;5.55;1.88;;;19.30;57.10;;;;;;5096153;28;20048;-67
2022/06/13 08:38:36;;;;;;;5.57;1.88;;;19.30;55.20;;;;;;5096157;28;20058;-67
2022/06/13 08:41:10;;;;;;;4.95;1.80;;;19.40;55.50;;;;;;5096048;28;20050;-67
2022/06/13 08:43:45;;;;;;;5.63;1.95;;;19.40;55.50;;;;;;5096081;28;20036;-67
2022/06/13 08:46:18;;;;;;;7.25;2.83;;;19.60;56.40;;;;;;5096104;28;20080;-67
2022/06/13 08:48:45;;;;;;;6.20;2.15;;;19.70;56.30;;;;;;5096076;28;20017;-67
2022/06/13 08:51:15;;;;;;;4.57;1.90;;;19.70;55.80;;;;;;5095012;28;20025;-67
2022/06/13 08:53:52;;;;;;;6.35;2.10;;;19.70;55.70;;;;;;5095941;28;20020;-67
2022/06/13 08:56:21;;;;;;;6.47;2.20;;;19.50;54.70;;;;;;5095980;28;20024;-67
2022/06/13 08:59:25;;;;;;;5.70;1.90;;;19.40;54.70;;;;;;5095714;28;20024;-67
2022/06/13 09:02:07;;;;;;;6.93;1.90;;;19.40;55.20;;;;;;5094234;28;20036;-67
2022/06/13 09:04:44;;;;;;;7.53;2.30;;;19.40;55.80;;;;;;5095652;28;20025;-67
2022/06/13 09:07:13;;;;;;;3.72;1.92;;;19.30;55.10;;;;;;5095605;28;20028;-67
2022/06/13 09:10:08;;;;;;;3.60;1.42;;;19.20;55.00;;;;;;5095560;28;20032;-67
2022/06/13 09:12:46;;;;;;;3.70;1.08;;;19.20;53.90;;;;;;5073126;28;20029;-68
2022/06/13 09:15:18;;;;;;;3.97;1.20;;;19.20;53.70;;;;;;5094427;28;20017;-68
2022/06/13 09:17:53;;;;;;;3.97;1.20;;;19.10;53.60;;;;;;5095466;28;20096;-67
2022/06/13 09:20:41;;;;;;;3.22;0.88;;;19.20;53.80;;;;;;5095330;28;20439;-67
2022/06/13 09:23:31;;;;;;;4.53;1.10;;;19.20;52.90;;;;;;5094287;28;20134;-67
2022/06/13 09:26:39;;;;;;;2.53;0.90;;;19.30;52.40;;;;;;5095451;28;20108;-68
2022/06/13 09:29:04;;;;;;;2.08;0.90;;;19.50;52.30;;;;;;5033458;28;20042;-68
2022/06/13 09:31:32;;;;;;;1.80;0.75;;;19.60;52.60;;;;;;5082479;28;20055;-68
2022/06/13 09:34:07;;;;;;;2.45;0.70;;;19.70;51.90;;;;;;5094922;28;20120;-68
2022/06/13 09:36:36;;;;;;;2.60;0.70;;;19.90;51.70;;;;;;5095085;28;20016;-68
2022/06/13 09:39:08;;;;;;;2.78;0.70;;;20.00;51.90;;;;;;5094899;28;20023;-68
2022/06/13 09:41:55;;;;;;;1.73;0.70;;;20.10;49.90;;;;;;5094877;28;20017;-67
2022/06/13 09:44:42;;;;;;;3.03;0.70;;;20.10;49.90;;;;;;5094953;28;20043;-67
2022/06/13 09:47:30;;;;;;;1.67;0.63;;;20.20;50.20;;;;;;5095018;28;20036;-67
2022/06/13 09:50:05;;;;;;;6.13;0.93;;;20.20;50.90;;;;;;5094859;28;20084;-67
2022/06/13 09:52:51;;;;;;;2.15;0.77;;;20.20;50.10;;;;;;5094907;28;20020;-68
2022/06/13 09:55:41;;;;;;;4.50;1.15;;;20.10;49.70;;;;;;5094822;28;20033;-68
2022/06/13 09:58:27;;;;;;;3.80;0.82;;;20.20;49.80;;;;;;5094775;28;20028;-68
2022/06/13 10:01:01;;;;;;;2.30;0.70;;;20.20;49.80;;;;;;5063015;28;20040;-67
2022/06/13 10:03:43;;;;;;;3.50;0.95;;;20.10;48.50;;;;;;5094638;28;20471;-68
2022/06/13 10:06:29;;;;;;;2.07;0.93;;;20.10;49.30;;;;;;5094322;28;20041;-67
2022/06/13 10:09:14;;;;;;;4.20;0.77;;;20.00;49.10;;;;;;5094531;28;20261;-67
2022/06/13 10:12:03;;;;;;;4.40;0.80;;;20.00;49.60;;;;;;5094396;28;20029;-67
2022/06/13 10:14:53;;;;;;;3.40;0.80;;;20.10;48.80;;;;;;5094272;28;20031;-67
2022/06/13 10:17:37;;;;;;;2.72;0.70;;;20.20;48.70;;;;;;5093248;28;20024;-67
2022/06/13 10:20:44;;;;;;;2.35;0.50;;;20.40;49.80;;;;;;5094144;28;20024;-67
2022/06/13 10:23:44;;;;;;;2.95;1.02;;;20.50;48.00;;;;;;5094278;28;20017;-67
2022/06/13 10:26:42;;;;;;;1.88;0.68;;;20.60;47.60;;;;;;5094260;28;20031;-67
2022/06/13 10:29:23;;;;;;;1.63;0.68;;;20.50;46.00;;;;;;5093626;28;20029;-67
2022/06/13 10:32:13;;;;;;;3.90;0.90;;;20.30;47.20;;;;;;5094011;28;20025;-68
2022/06/13 10:34:48;;;;;;;2.45;1.00;;;20.30;48.10;;;;;;5092956;28;20012;-67
2022/06/13 10:37:40;;;;;;;3.03;0.77;;;20.30;48.10;;;;;;5093924;28;20016;-68
2022/06/13 10:40:07;;;;;;;2.88;0.90;;;20.40;48.60;;;;;;5093948;28;20029;-68
2022/06/13 10:42:35;;;;;;;4.25;0.88;;;20.50;47.70;;;;;;5093764;28;20034;-68
2022/06/13 10:45:04;;;;;;;3.75;0.90;;;20.60;47.50;;;;;;5093729;28;20028;-68
2022/06/13 10:47:48;;;;;;;4.22;0.80;;;20.70;48.10;;;;;;5093595;28;20028;-68
2022/06/13 10:50:24;;;;;;;2.30;1.00;;;20.80;46.10;;;;;;5093691;28;20051;-68
2022/06/13 10:52:53;;;;;;;3.88;0.88;;;20.90;45.20;;;;;;5093278;28;20020;-68
2022/06/13 10:55:23;;;;;;;2.28;1.00;;;20.90;46.00;;;;;;5093541;28;20031;-68
2022/06/13 10:58:00;;;;;;;1.95;0.82;;;21.00;45.20;;;;;;5093576;28;20078;-67
2022/06/13 11:00:28;;;;;;;4.80;0.98;;;21.00;45.70;;;;;;5093492;28;20029;-67
2022/06/13 11:03:15;;;;;;;4.00;0.90;;;21.00;46.20;;;;;;5093465;28;20048;-67
2022/06/13 11:05:55;;;;;;;3.60;0.77;;;21.10;46.10;;;;;;5093283;28;20120;-68
2022/06/13 11:08:22;;;;;;;2.83;0.98;;;21.10;45.20;;;;;;5093388;28;20017;-67
2022/06/13 11:11:14;;;;;;;3.92;1.10;;;21.20;47.20;;;;;;5093366;28;20040;-67
2022/06/13 11:13:42;;;;;;;4.40;0.88;;;21.10;44.40;;;;;;5093465;28;20024;-67
2022/06/13 11:24:49;;;;;;;5.93;1.10;;;21.00;46.20;;;;;;5093420;28;20058;-68
2022/06/13 11:27:40;;;;;;;4.07;1.25;;;21.10;47.70;;;;;;5093229;28;20029;-67
2022/06/13 11:30:42;;;;;;;4.35;1.35;;;21.20;46.50;;;;;;5092273;28;20024;-68
2022/06/13 11:33:11;;;;;;;1.92;0.98;;;21.20;45.30;;;;;;5093108;28;20031;-67
2022/06/13 11:35:54;;;;;;;5.03;1.27;;;21.20;46.00;;;;;;5093190;28;20028;-67
2022/06/13 11:38:50;;;;;;;4.72;1.20;;;21.30;46.40;;;;;;5093260;28;20088;-67
2022/06/13 11:41:34;;;;;;;2.47;1.00;;;21.40;45.10;;;;;;5092990;28;20029;-68
2022/06/13 11:44:00;;;;;;;2.78;0.90;;;21.50;45.00;;;;;;5093071;28;20023;-67
2022/06/13 11:46:30;;;;;;;3.15;1.10;;;21.50;46.00;;;;;;5091963;28;20055;-67
2022/06/13 11:49:02;;;;;;;2.85;0.93;;;21.50;45.20;;;;;;5092995;28;20038;-68
2022/06/13 11:51:34;;;;;;;2.17;0.90;;;21.30;43.30;;;;;;5093112;28;20044;-67
2022/06/13 11:54:00;;;;;;;2.45;0.90;;;21.10;43.60;;;;;;5092993;28;20017;-67
2022/06/13 11:56:30;;;;;;;2.22;0.90;;;21.20;44.80;;;;;;5091934;28;20080;-67
2022/06/13 11:59:00;;;;;;;3.63;1.00;;;21.30;45.20;;;;;;5092949;28;20024;-67
2022/06/13 12:01:35;;;;;;;2.83;1.20;;;21.40;45.00;;;;;;5092927;28;20027;-68
2022/06/13 12:04:16;;;;;;;4.70;1.25;;;21.50;43.60;;;;;;5094237;28;20016;-67
2022/06/13 12:06:56;;;;;;;3.83;0.90;;;21.60;43.50;;;;;;5096776;28;20035;-67
2022/06/13 12:09:31;;;;;;;3.08;1.27;;;21.70;43.70;;;;;;5096923;28;20024;-67
2022/06/13 12:12:03;;;;;;;3.53;1.23;;;21.60;43.30;;;;;;5096710;28;20020;-68
2022/06/13 12:14:32;;;;;;;3.78;1.35;;;21.60;44.90;;;;;;5096622;28;20079;-68
2022/06/13 12:17:29;;;;;;;3.90;1.27;;;21.70;46.20;;;;;;5096535;28;20094;-68
2022/06/13 12:20:06;;;;;;;3.72;1.13;;;21.80;46.30;;;;;;5096627;28;20031;-67
2022/06/13 12:22:34;;;;;;;5.13;1.27;;;21.90;45.10;;;;;;5096539;28;20020;-67
2022/06/13 12:25:12;;;;;;;3.33;1.10;;;21.90;43.20;;;;;;5096373;28;20040;-67
2022/06/13 12:27:57;;;;;;;3.70;1.17;;;21.90;43.50;;;;;;5096467;28;20017;-67
2022/06/13 12:31:00;;;;;;;3.60;0.95;;;21.80;42.90;;;;;;5096369;28;20020;-67
2022/06/13 12:33:38;;;;;;;4.95;1.15;;;21.70;43.10;;;;;;5096221;28;20028;-68
2022/06/13 12:36:33;;;;;;;4.72;1.10;;;21.60;44.00;;;;;;5096278;28;20088;-67
2022/06/13 12:39:26;;;;;;;3.30;1.23;;;21.60;44.10;;;;;;5096100;28;20025;-67
2022/06/13 12:42:14;;;;;;;;;;;21.60;42.50;;;;;;5096639;28;20532;-67
2022/06/13 12:45:04;;;;;;;2.55;1.25;;;21.60;42.10;;;;;;5092898;28;19905;-68
2022/06/13 12:47:50;;;;;;;3.28;1.40;;;21.50;42.60;;;;;;5096130;28;20020;-67
2022/06/13 12:50:40;;;;;;;3.42;0.85;;;21.60;43.70;;;;;;5095128;28;20051;-67
2022/06/13 12:53:51;;;;;;;2.03;0.75;;;21.70;42.60;;;;;;5094949;28;20073;-68
2022/06/13 12:56:26;;;;;;;5.07;1.30;;;21.90;41.50;;;;;;5091753;28;20107;-67
2022/06/13 12:59:10;;;;;;;3.15;0.98;;;22.00;43.70;;;;;;5095974;28;20048;-68
2022/06/13 13:01:46;;;;;;;3.53;1.05;;;22.20;43.10;;;;;;5095771;28;20020;-68
2022/06/13 13:04:32;;;;;;;3.55;1.10;;;22.40;41.70;;;;;;5095714;28;20032;-67
2022/06/13 13:07:20;;;;;;;4.90;1.10;;;22.40;41.20;;;;;;5095809;28;20051;-68
2022/06/13 13:10:10;;;;;;;4.03;1.10;;;22.40;40.30;;;;;;5095600;28;20051;-68
2022/06/13 13:13:10;;;;;;;4.28;0.93;;;22.30;40.40;;;;;;5095552;28;20020;-67
2022/06/13 13:15:44;;;;;;;4.13;1.05;;;22.20;40.30;;;;;;5095128;28;20025;-67
2022/06/13 13:18:25;;;;;;;3.45;1.00;;;22.20;40.50;;;;;;5095497;28;20056;-68
2022/06/13 13:21:16;;;;;;;1.80;0.77;;;22.20;40.30;;;;;;5095459;28;20028;-67
2022/06/13 13:23:59;;;;;;;2.92;0.85;;;22.20;39.30;;;;;;5087131;28;20036;-68
2022/06/13 13:26:51;;;;;;;4.65;1.00;;;22.30;40.50;;;;;;5095454;28;20025;-68
2022/06/13 13:29:45;;;;;;;4.13;0.93;;;22.40;39.10;;;;;;5095238;28;20388;-68
2022/06/13 13:32:30;;;;;;;5.97;1.00;;;22.50;39.00;;;;;;5093654;28;20283;-67
2022/06/13 13:35:44;;;;;;;3.80;0.90;;;22.50;38.30;;;;;;5095144;28;20023;-68
2022/06/13 13:38:19;;;;;;;2.80;0.80;;;22.60;37.60;;;;;;5033940;28;20065;-68
2022/06/13 13:40:52;;;;;;;3.47;1.10;;;22.60;37.70;;;;;;5095038;28;20017;-68
2022/06/13 13:43:41;;;;;;;3.22;0.77;;;22.50;37.90;;;;;;5095012;28;20027;-68
2022/06/13 13:46:42;;;;;;;3.67;1.00;;;22.40;37.20;;;;;;5094960;28;20031;-68